Terminal Aerodrome Forecast
Issued by NWS

Home | Current Version | Previous Version | Graphics & Text | Print | Product List | Glossary On
Versions: 1 2 3 4 5 6 7 8 9 10 11 12 13 14 15 16 17 18
304
FTUS43 KMPX 050718 AAA
TAFRNH
TAF AMD
KRNH 050718Z 0507/0606 00000KT 6SM BR SKC
     FM050800 00000KT P6SM SCT250
     FM051500 17006KT P6SM OVC090
     FM051900 18008KT P6SM OVC040
     FM052200 18007KT 3SM -SN BR OVC025
     FM060300 20005KT P6SM BKN025=

USA.gov is the U.S. government's official web portal to all federal, state and local government web resources and services.